sensor_id;sensor_type;location;lat;lon;timestamp;P1;durP1;ratioP1;P2;durP2;ratioP2
18443;SDS011;9350;53.176;8.194;2022-10-31T00:01:17;24.70;;;14.50;;
18443;SDS011;9350;53.176;8.194;2022-10-31T00:03:45;26.67;;;14.70;;
18443;SDS011;9350;53.176;8.194;2022-10-31T00:06:12;25.80;;;15.52;;
18443;SDS011;9350;53.176;8.194;2022-10-31T00:08:39;31.50;;;16.50;;
18443;SDS011;9350;53.176;8.194;2022-10-31T00:11:08;32.40;;;16.08;;
18443;SDS011;9350;53.176;8.194;2022-10-31T00:13:35;29.85;;;16.63;;
18443;SDS011;9350;53.176;8.194;2022-10-31T00:16:03;39.55;;;17.02;;
18443;SDS011;9350;53.176;8.194;2022-10-31T00:18:30;30.38;;;16.98;;
18443;SDS011;9350;53.176;8.194;2022-10-31T00:21:00;36.30;;;17.05;;
18443;SDS011;9350;53.176;8.194;2022-10-31T00:23:28;29.25;;;16.92;;
18443;SDS011;9350;53.176;8.194;2022-10-31T00:25:59;31.75;;;16.83;;
18443;SDS011;9350;53.176;8.194;2022-10-31T00:28:26;31.17;;;16.15;;
18443;SDS011;9350;53.176;8.194;2022-10-31T00:30:57;29.00;;;15.82;;
18443;SDS011;9350;53.176;8.194;2022-10-31T00:33:26;31.83;;;16.27;;
18443;SDS011;9350;53.176;8.194;2022-10-31T00:35:53;26.52;;;15.15;;
18443;SDS011;9350;53.176;8.194;2022-10-31T00:38:20;36.15;;;16.05;;
18443;SDS011;9350;53.176;8.194;2022-10-31T00:40:46;26.30;;;14.88;;
18443;SDS011;9350;53.176;8.194;2022-10-31T00:43:13;25.73;;;14.43;;
18443;SDS011;9350;53.176;8.194;2022-10-31T00:45:40;23.10;;;13.68;;
18443;SDS011;9350;53.176;8.194;2022-10-31T00:48:07;29.27;;;14.85;;
18443;SDS011;9350;53.176;8.194;2022-10-31T00:50:36;25.67;;;12.40;;
18443;SDS011;9350;53.176;8.194;2022-10-31T00:53:03;27.77;;;13.77;;
18443;SDS011;9350;53.176;8.194;2022-10-31T00:55:30;22.55;;;13.52;;
18443;SDS011;9350;53.176;8.194;2022-10-31T00:57:57;28.63;;;13.30;;
18443;SDS011;9350;53.176;8.194;2022-10-31T01:00:23;31.42;;;14.95;;
18443;SDS011;9350;53.176;8.194;2022-10-31T01:02:50;25.98;;;14.07;;
18443;SDS011;9350;53.176;8.194;2022-10-31T01:05:17;26.77;;;13.13;;
18443;SDS011;9350;53.176;8.194;2022-10-31T01:07:45;31.08;;;15.45;;
18443;SDS011;9350;53.176;8.194;2022-10-31T01:10:12;31.00;;;14.15;;
18443;SDS011;9350;53.176;8.194;2022-10-31T01:12:39;23.40;;;13.95;;
18443;SDS011;9350;53.176;8.194;2022-10-31T01:15:07;24.98;;;13.45;;
18443;SDS011;9350;53.176;8.194;2022-10-31T01:17:35;23.33;;;13.00;;
18443;SDS011;9350;53.176;8.194;2022-10-31T01:20:02;25.73;;;12.70;;
18443;SDS011;9350;53.176;8.194;2022-10-31T01:22:30;23.95;;;12.38;;
18443;SDS011;9350;53.176;8.194;2022-10-31T01:24:58;21.23;;;12.43;;
18443;SDS011;9350;53.176;8.194;2022-10-31T01:27:25;22.60;;;12.80;;
18443;SDS011;9350;53.176;8.194;2022-10-31T01:29:52;20.63;;;11.73;;
18443;SDS011;9350;53.176;8.194;2022-10-31T01:32:18;31.63;;;13.18;;
18443;SDS011;9350;53.176;8.194;2022-10-31T01:34:45;29.75;;;13.35;;
18443;SDS011;9350;53.176;8.194;2022-10-31T01:37:12;28.08;;;13.65;;
18443;SDS011;9350;53.176;8.194;2022-10-31T01:39:39;28.75;;;13.80;;
18443;SDS011;9350;53.176;8.194;2022-10-31T01:42:09;26.40;;;12.52;;
18443;SDS011;9350;53.176;8.194;2022-10-31T01:44:50;23.35;;;12.30;;
18443;SDS011;9350;53.176;8.194;2022-10-31T01:47:24;20.83;;;12.32;;
18443;SDS011;9350;53.176;8.194;2022-10-31T01:49:59;25.00;;;12.45;;
18443;SDS011;9350;53.176;8.194;2022-10-31T01:52:29;23.58;;;13.60;;
18443;SDS011;9350;53.176;8.194;2022-10-31T01:54:59;22.25;;;12.23;;
18443;SDS011;9350;53.176;8.194;2022-10-31T01:57:31;25.35;;;14.13;;
18443;SDS011;9350;53.176;8.194;2022-10-31T02:00:03;24.52;;;14.38;;
18443;SDS011;9350;53.176;8.194;2022-10-31T02:02:32;27.33;;;14.25;;
18443;SDS011;9350;53.176;8.194;2022-10-31T02:04:59;29.80;;;15.13;;
18443;SDS011;9350;53.176;8.194;2022-10-31T02:07:28;32.58;;;14.70;;
18443;SDS011;9350;53.176;8.194;2022-10-31T02:09:59;35.10;;;15.95;;
18443;SDS011;9350;53.176;8.194;2022-10-31T02:12:27;28.63;;;15.13;;
18443;SDS011;9350;53.176;8.194;2022-10-31T02:14:56;29.92;;;14.65;;
18443;SDS011;9350;53.176;8.194;2022-10-31T02:17:23;28.13;;;15.43;;
18443;SDS011;9350;53.176;8.194;2022-10-31T02:19:51;27.00;;;14.80;;
18443;SDS011;9350;53.176;8.194;2022-10-31T02:22:24;28.17;;;13.77;;
18443;SDS011;9350;53.176;8.194;2022-10-31T02:25:03;23.95;;;13.63;;
18443;SDS011;9350;53.176;8.194;2022-10-31T02:27:51;25.73;;;12.82;;
18443;SDS011;9350;53.176;8.194;2022-10-31T02:30:37;27.23;;;15.43;;
18443;SDS011;9350;53.176;8.194;2022-10-31T02:33:18;25.40;;;14.35;;
18443;SDS011;9350;53.176;8.194;2022-10-31T02:35:54;23.02;;;14.07;;
18443;SDS011;9350;53.176;8.194;2022-10-31T02:38:29;25.60;;;14.05;;
18443;SDS011;9350;53.176;8.194;2022-10-31T02:41:06;29.23;;;14.18;;
18443;SDS011;9350;53.176;8.194;2022-10-31T02:43:43;22.38;;;12.63;;
18443;SDS011;9350;53.176;8.194;2022-10-31T02:46:17;20.77;;;11.57;;
18443;SDS011;9350;53.176;8.194;2022-10-31T02:48:52;22.20;;;12.63;;
18443;SDS011;9350;53.176;8.194;2022-10-31T02:51:20;27.00;;;12.35;;
18443;SDS011;9350;53.176;8.194;2022-10-31T02:53:47;24.20;;;12.20;;
18443;SDS011;9350;53.176;8.194;2022-10-31T02:56:15;19.60;;;11.27;;
18443;SDS011;9350;53.176;8.194;2022-10-31T02:58:44;22.50;;;12.50;;
18443;SDS011;9350;53.176;8.194;2022-10-31T03:01:31;21.70;;;12.38;;
18443;SDS011;9350;53.176;8.194;2022-10-31T03:07:23;22.45;;;12.27;;
18443;SDS011;9350;53.176;8.194;2022-10-31T03:09:58;22.92;;;13.15;;
18443;SDS011;9350;53.176;8.194;2022-10-31T03:12:33;24.50;;;12.85;;
18443;SDS011;9350;53.176;8.194;2022-10-31T03:15:08;22.55;;;12.77;;
18443;SDS011;9350;53.176;8.194;2022-10-31T03:17:42;24.52;;;11.85;;
18443;SDS011;9350;53.176;8.194;2022-10-31T03:20:15;21.23;;;12.40;;
18443;SDS011;9350;53.176;8.194;2022-10-31T03:22:48;21.25;;;12.05;;
18443;SDS011;9350;53.176;8.194;2022-10-31T03:25:15;19.92;;;11.52;;
18443;SDS011;9350;53.176;8.194;2022-10-31T03:27:44;28.05;;;12.48;;
18443;SDS011;9350;53.176;8.194;2022-10-31T03:30:12;23.92;;;12.25;;
18443;SDS011;9350;53.176;8.194;2022-10-31T03:32:41;25.17;;;12.25;;
18443;SDS011;9350;53.176;8.194;2022-10-31T03:35:09;21.80;;;11.95;;
18443;SDS011;9350;53.176;8.194;2022-10-31T03:37:38;17.50;;;11.40;;
18443;SDS011;9350;53.176;8.194;2022-10-31T03:40:08;21.77;;;11.48;;
18443;SDS011;9350;53.176;8.194;2022-10-31T03:42:38;20.75;;;11.50;;
18443;SDS011;9350;53.176;8.194;2022-10-31T03:45:10;23.50;;;10.73;;
18443;SDS011;9350;53.176;8.194;2022-10-31T03:47:39;23.52;;;11.93;;
18443;SDS011;9350;53.176;8.194;2022-10-31T03:50:08;24.35;;;11.63;;
18443;SDS011;9350;53.176;8.194;2022-10-31T03:52:37;20.77;;;11.52;;
18443;SDS011;9350;53.176;8.194;2022-10-31T03:55:16;20.90;;;11.25;;
18443;SDS011;9350;53.176;8.194;2022-10-31T03:57:45;18.88;;;10.68;;
18443;SDS011;9350;53.176;8.194;2022-10-31T04:00:18;21.17;;;12.15;;
18443;SDS011;9350;53.176;8.194;2022-10-31T04:02:46;23.00;;;12.68;;
18443;SDS011;9350;53.176;8.194;2022-10-31T04:05:17;16.88;;;10.93;;
18443;SDS011;9350;53.176;8.194;2022-10-31T04:07:46;24.20;;;11.75;;
18443;SDS011;9350;53.176;8.194;2022-10-31T04:10:19;23.58;;;12.50;;
18443;SDS011;9350;53.176;8.194;2022-10-31T04:12:49;31.20;;;12.73;;
18443;SDS011;9350;53.176;8.194;2022-10-31T04:15:20;28.88;;;13.18;;
18443;SDS011;9350;53.176;8.194;2022-10-31T04:17:49;23.90;;;12.82;;
18443;SDS011;9350;53.176;8.194;2022-10-31T04:20:18;26.45;;;14.07;;
18443;SDS011;9350;53.176;8.194;2022-10-31T04:22:54;33.25;;;16.30;;
18443;SDS011;9350;53.176;8.194;2022-10-31T04:25:22;36.47;;;17.00;;
18443;SDS011;9350;53.176;8.194;2022-10-31T04:27:49;35.95;;;17.17;;
18443;SDS011;9350;53.176;8.194;2022-10-31T04:30:16;35.80;;;16.80;;
18443;SDS011;9350;53.176;8.194;2022-10-31T04:32:42;30.67;;;16.05;;
18443;SDS011;9350;53.176;8.194;2022-10-31T04:35:09;41.13;;;16.50;;
18443;SDS011;9350;53.176;8.194;2022-10-31T04:37:36;37.90;;;16.02;;
18443;SDS011;9350;53.176;8.194;2022-10-31T04:40:03;44.08;;;16.35;;
18443;SDS011;9350;53.176;8.194;2022-10-31T04:42:32;59.25;;;16.48;;
18443;SDS011;9350;53.176;8.194;2022-10-31T04:44:58;32.58;;;14.65;;
18443;SDS011;9350;53.176;8.194;2022-10-31T04:47:25;35.75;;;14.82;;
18443;SDS011;9350;53.176;8.194;2022-10-31T04:49:52;26.48;;;13.25;;
18443;SDS011;9350;53.176;8.194;2022-10-31T04:52:19;65.10;;;14.55;;
18443;SDS011;9350;53.176;8.194;2022-10-31T04:54:45;32.50;;;13.88;;
18443;SDS011;9350;53.176;8.194;2022-10-31T04:57:12;47.45;;;13.15;;
18443;SDS011;9350;53.176;8.194;2022-10-31T04:59:40;59.70;;;14.88;;
18443;SDS011;9350;53.176;8.194;2022-10-31T05:02:07;39.65;;;14.10;;
18443;SDS011;9350;53.176;8.194;2022-10-31T05:04:33;35.80;;;14.52;;
18443;SDS011;9350;53.176;8.194;2022-10-31T05:07:00;31.48;;;14.30;;
18443;SDS011;9350;53.176;8.194;2022-10-31T05:09:27;17.30;;;12.57;;
18443;SDS011;9350;53.176;8.194;2022-10-31T05:11:53;32.38;;;14.07;;
18443;SDS011;9350;53.176;8.194;2022-10-31T05:14:20;25.23;;;13.60;;
18443;SDS011;9350;53.176;8.194;2022-10-31T05:16:48;23.20;;;12.98;;
18443;SDS011;9350;53.176;8.194;2022-10-31T05:19:15;25.63;;;14.13;;
18443;SDS011;9350;53.176;8.194;2022-10-31T05:21:41;47.88;;;16.15;;
18443;SDS011;9350;53.176;8.194;2022-10-31T05:24:08;52.88;;;15.95;;
18443;SDS011;9350;53.176;8.194;2022-10-31T05:26:35;51.08;;;14.73;;
18443;SDS011;9350;53.176;8.194;2022-10-31T05:29:02;27.98;;;15.27;;
18443;SDS011;9350;53.176;8.194;2022-10-31T05:31:29;35.22;;;14.43;;
18443;SDS011;9350;53.176;8.194;2022-10-31T05:33:57;54.97;;;15.18;;
18443;SDS011;9350;53.176;8.194;2022-10-31T05:36:23;24.90;;;13.95;;
18443;SDS011;9350;53.176;8.194;2022-10-31T05:38:50;42.78;;;13.57;;
18443;SDS011;9350;53.176;8.194;2022-10-31T05:41:17;52.63;;;13.88;;
18443;SDS011;9350;53.176;8.194;2022-10-31T05:43:44;80.60;;;15.38;;
18443;SDS011;9350;53.176;8.194;2022-10-31T05:46:11;46.10;;;14.07;;
18443;SDS011;9350;53.176;8.194;2022-10-31T05:48:38;43.05;;;14.32;;
18443;SDS011;9350;53.176;8.194;2022-10-31T05:51:06;52.05;;;14.13;;
18443;SDS011;9350;53.176;8.194;2022-10-31T05:53:32;45.65;;;14.73;;
18443;SDS011;9350;53.176;8.194;2022-10-31T05:55:59;32.72;;;12.93;;
18443;SDS011;9350;53.176;8.194;2022-10-31T05:58:26;59.35;;;13.15;;
18443;SDS011;9350;53.176;8.194;2022-10-31T06:00:52;47.20;;;14.70;;
18443;SDS011;9350;53.176;8.194;2022-10-31T06:03:19;33.20;;;13.68;;
18443;SDS011;9350;53.176;8.194;2022-10-31T06:05:46;33.75;;;13.93;;
18443;SDS011;9350;53.176;8.194;2022-10-31T06:08:14;26.98;;;13.75;;
18443;SDS011;9350;53.176;8.194;2022-10-31T06:10:40;47.60;;;14.02;;
18443;SDS011;9350;53.176;8.194;2022-10-31T06:13:07;30.25;;;14.55;;
18443;SDS011;9350;53.176;8.194;2022-10-31T06:15:34;37.58;;;14.18;;
18443;SDS011;9350;53.176;8.194;2022-10-31T06:18:01;63.58;;;15.13;;
18443;SDS011;9350;53.176;8.194;2022-10-31T06:20:29;27.15;;;14.20;;
18443;SDS011;9350;53.176;8.194;2022-10-31T06:22:56;25.77;;;13.77;;
18443;SDS011;9350;53.176;8.194;2022-10-31T06:25:24;38.95;;;15.40;;
18443;SDS011;9350;53.176;8.194;2022-10-31T06:27:51;33.58;;;15.63;;
18443;SDS011;9350;53.176;8.194;2022-10-31T06:30:18;28.88;;;15.40;;
18443;SDS011;9350;53.176;8.194;2022-10-31T06:32:45;20.15;;;13.60;;
18443;SDS011;9350;53.176;8.194;2022-10-31T06:35:12;33.45;;;13.68;;
18443;SDS011;9350;53.176;8.194;2022-10-31T06:37:39;25.55;;;14.38;;
18443;SDS011;9350;53.176;8.194;2022-10-31T06:40:06;26.52;;;15.40;;
18443;SDS011;9350;53.176;8.194;2022-10-31T06:42:35;29.45;;;14.70;;
18443;SDS011;9350;53.176;8.194;2022-10-31T06:45:02;27.60;;;14.90;;
18443;SDS011;9350;53.176;8.194;2022-10-31T06:47:29;31.27;;;15.00;;
18443;SDS011;9350;53.176;8.194;2022-10-31T06:49:55;31.20;;;15.27;;
18443;SDS011;9350;53.176;8.194;2022-10-31T06:52:22;37.53;;;15.75;;
18443;SDS011;9350;53.176;8.194;2022-10-31T06:54:49;34.10;;;16.02;;
18443;SDS011;9350;53.176;8.194;2022-10-31T06:57:16;34.47;;;16.45;;
18443;SDS011;9350;53.176;8.194;2022-10-31T06:59:44;38.10;;;16.23;;
18443;SDS011;9350;53.176;8.194;2022-10-31T07:02:11;30.15;;;15.68;;
18443;SDS011;9350;53.176;8.194;2022-10-31T07:04:38;38.63;;;15.48;;
18443;SDS011;9350;53.176;8.194;2022-10-31T07:07:04;23.85;;;14.85;;
18443;SDS011;9350;53.176;8.194;2022-10-31T07:09:31;38.88;;;16.73;;
18443;SDS011;9350;53.176;8.194;2022-10-31T07:11:58;23.88;;;15.15;;
18443;SDS011;9350;53.176;8.194;2022-10-31T07:14:24;26.80;;;16.13;;
18443;SDS011;9350;53.176;8.194;2022-10-31T07:16:52;28.38;;;16.00;;
18443;SDS011;9350;53.176;8.194;2022-10-31T07:19:19;29.48;;;16.08;;
18443;SDS011;9350;53.176;8.194;2022-10-31T07:21:46;26.92;;;15.73;;
18443;SDS011;9350;53.176;8.194;2022-10-31T07:24:13;25.13;;;16.30;;
18443;SDS011;9350;53.176;8.194;2022-10-31T07:26:40;32.17;;;16.90;;
18443;SDS011;9350;53.176;8.194;2022-10-31T07:29:07;31.15;;;16.80;;
18443;SDS011;9350;53.176;8.194;2022-10-31T07:31:33;38.22;;;17.75;;
18443;SDS011;9350;53.176;8.194;2022-10-31T07:34:02;27.90;;;16.85;;
18443;SDS011;9350;53.176;8.194;2022-10-31T07:36:28;24.23;;;16.83;;
18443;SDS011;9350;53.176;8.194;2022-10-31T07:38:55;25.85;;;16.85;;
18443;SDS011;9350;53.176;8.194;2022-10-31T07:41:23;29.88;;;17.15;;
18443;SDS011;9350;53.176;8.194;2022-10-31T07:43:50;32.33;;;18.17;;
18443;SDS011;9350;53.176;8.194;2022-10-31T07:46:16;31.23;;;17.88;;
18443;SDS011;9350;53.176;8.194;2022-10-31T07:48:43;30.58;;;18.08;;
18443;SDS011;9350;53.176;8.194;2022-10-31T07:51:11;33.20;;;19.13;;
18443;SDS011;9350;53.176;8.194;2022-10-31T07:53:38;36.22;;;18.65;;
18443;SDS011;9350;53.176;8.194;2022-10-31T07:56:04;31.90;;;18.75;;
18443;SDS011;9350;53.176;8.194;2022-10-31T07:58:31;30.52;;;18.70;;
18443;SDS011;9350;53.176;8.194;2022-10-31T08:00:58;40.97;;;18.40;;
18443;SDS011;9350;53.176;8.194;2022-10-31T08:03:25;27.67;;;17.77;;
18443;SDS011;9350;53.176;8.194;2022-10-31T08:05:51;28.48;;;17.75;;
18443;SDS011;9350;53.176;8.194;2022-10-31T08:08:19;38.63;;;17.80;;
18443;SDS011;9350;53.176;8.194;2022-10-31T08:10:46;29.80;;;18.50;;
18443;SDS011;9350;53.176;8.194;2022-10-31T08:13:13;25.75;;;17.35;;
18443;SDS011;9350;53.176;8.194;2022-10-31T08:15:40;25.27;;;17.55;;
18443;SDS011;9350;53.176;8.194;2022-10-31T08:18:10;26.25;;;17.02;;
18443;SDS011;9350;53.176;8.194;2022-10-31T08:20:38;29.42;;;17.08;;
18443;SDS011;9350;53.176;8.194;2022-10-31T08:23:05;25.30;;;17.00;;
18443;SDS011;9350;53.176;8.194;2022-10-31T08:25:34;28.55;;;18.13;;
18443;SDS011;9350;53.176;8.194;2022-10-31T08:28:01;33.08;;;18.42;;
18443;SDS011;9350;53.176;8.194;2022-10-31T08:30:29;32.72;;;18.17;;
18443;SDS011;9350;53.176;8.194;2022-10-31T08:32:58;34.00;;;18.15;;
18443;SDS011;9350;53.176;8.194;2022-10-31T08:35:29;28.77;;;18.33;;
18443;SDS011;9350;53.176;8.194;2022-10-31T08:37:56;31.95;;;18.45;;
18443;SDS011;9350;53.176;8.194;2022-10-31T08:40:23;32.47;;;19.30;;
18443;SDS011;9350;53.176;8.194;2022-10-31T08:43:01;31.55;;;19.20;;
18443;SDS011;9350;53.176;8.194;2022-10-31T08:45:30;35.95;;;19.42;;
18443;SDS011;9350;53.176;8.194;2022-10-31T08:47:58;30.27;;;20.10;;
18443;SDS011;9350;53.176;8.194;2022-10-31T08:50:27;33.03;;;19.23;;
18443;SDS011;9350;53.176;8.194;2022-10-31T08:52:59;35.75;;;20.00;;
18443;SDS011;9350;53.176;8.194;2022-10-31T08:55:26;36.42;;;21.27;;
18443;SDS011;9350;53.176;8.194;2022-10-31T08:57:54;38.03;;;23.38;;
18443;SDS011;9350;53.176;8.194;2022-10-31T09:00:23;36.55;;;23.40;;
18443;SDS011;9350;53.176;8.194;2022-10-31T09:02:54;40.97;;;24.30;;
18443;SDS011;9350;53.176;8.194;2022-10-31T09:05:22;37.60;;;22.70;;
18443;SDS011;9350;53.176;8.194;2022-10-31T09:07:49;41.38;;;24.05;;
18443;SDS011;9350;53.176;8.194;2022-10-31T09:10:15;44.53;;;24.50;;
18443;SDS011;9350;53.176;8.194;2022-10-31T09:12:42;39.10;;;23.35;;
18443;SDS011;9350;53.176;8.194;2022-10-31T09:15:09;37.10;;;22.70;;
18443;SDS011;9350;53.176;8.194;2022-10-31T09:17:37;38.25;;;23.30;;
18443;SDS011;9350;53.176;8.194;2022-10-31T09:20:04;38.25;;;22.27;;
18443;SDS011;9350;53.176;8.194;2022-10-31T09:22:31;39.60;;;22.98;;
18443;SDS011;9350;53.176;8.194;2022-10-31T09:24:58;40.42;;;22.90;;
18443;SDS011;9350;53.176;8.194;2022-10-31T09:27:24;41.25;;;24.20;;
18443;SDS011;9350;53.176;8.194;2022-10-31T09:29:51;44.13;;;24.23;;
18443;SDS011;9350;53.176;8.194;2022-10-31T09:32:18;40.67;;;23.88;;
18443;SDS011;9350;53.176;8.194;2022-10-31T09:34:46;44.80;;;23.40;;
18443;SDS011;9350;53.176;8.194;2022-10-31T09:37:12;41.22;;;23.90;;
18443;SDS011;9350;53.176;8.194;2022-10-31T09:39:39;39.92;;;23.45;;
18443;SDS011;9350;53.176;8.194;2022-10-31T09:42:09;41.22;;;23.00;;
18443;SDS011;9350;53.176;8.194;2022-10-31T09:44:57;41.90;;;21.90;;
18443;SDS011;9350;53.176;8.194;2022-10-31T09:47:32;39.67;;;22.35;;
18443;SDS011;9350;53.176;8.194;2022-10-31T09:50:10;37.15;;;22.77;;
18443;SDS011;9350;53.176;8.194;2022-10-31T09:52:44;42.03;;;23.67;;
18443;SDS011;9350;53.176;8.194;2022-10-31T09:55:18;40.42;;;23.00;;
18443;SDS011;9350;53.176;8.194;2022-10-31T09:57:49;38.88;;;22.02;;
18443;SDS011;9350;53.176;8.194;2022-10-31T10:00:17;39.17;;;22.02;;
18443;SDS011;9350;53.176;8.194;2022-10-31T10:02:46;36.88;;;22.45;;
18443;SDS011;9350;53.176;8.194;2022-10-31T10:05:19;37.22;;;22.20;;
18443;SDS011;9350;53.176;8.194;2022-10-31T10:07:53;35.88;;;20.85;;
18443;SDS011;9350;53.176;8.194;2022-10-31T10:10:25;39.20;;;23.45;;
18443;SDS011;9350;53.176;8.194;2022-10-31T10:13:09;40.80;;;23.55;;
18443;SDS011;9350;53.176;8.194;2022-10-31T10:15:55;41.25;;;22.85;;
18443;SDS011;9350;53.176;8.194;2022-10-31T10:18:36;37.63;;;21.25;;
18443;SDS011;9350;53.176;8.194;2022-10-31T10:21:13;35.95;;;19.55;;
18443;SDS011;9350;53.176;8.194;2022-10-31T10:23:55;39.97;;;19.88;;
18443;SDS011;9350;53.176;8.194;2022-10-31T10:26:29;41.15;;;22.00;;
18443;SDS011;9350;53.176;8.194;2022-10-31T10:29:02;31.40;;;18.60;;
18443;SDS011;9350;53.176;8.194;2022-10-31T10:31:43;34.72;;;19.42;;
18443;SDS011;9350;53.176;8.194;2022-10-31T10:34:13;31.27;;;18.02;;
18443;SDS011;9350;53.176;8.194;2022-10-31T10:36:47;28.75;;;18.80;;
18443;SDS011;9350;53.176;8.194;2022-10-31T10:39:20;31.98;;;18.25;;
18443;SDS011;9350;53.176;8.194;2022-10-31T10:41:50;31.13;;;18.63;;
18443;SDS011;9350;53.176;8.194;2022-10-31T10:44:35;30.30;;;17.70;;
18443;SDS011;9350;53.176;8.194;2022-10-31T10:47:22;32.20;;;17.00;;
18443;SDS011;9350;53.176;8.194;2022-10-31T10:50:06;29.10;;;14.02;;
18443;SDS011;9350;53.176;8.194;2022-10-31T10:52:39;28.02;;;14.73;;
18443;SDS011;9350;53.176;8.194;2022-10-31T10:55:15;26.02;;;13.77;;
18443;SDS011;9350;53.176;8.194;2022-10-31T10:57:53;25.75;;;13.60;;
18443;SDS011;9350;53.176;8.194;2022-10-31T11:00:23;23.02;;;12.95;;
18443;SDS011;9350;53.176;8.194;2022-10-31T11:02:51;22.20;;;12.18;;
18443;SDS011;9350;53.176;8.194;2022-10-31T11:05:21;25.17;;;12.45;;
18443;SDS011;9350;53.176;8.194;2022-10-31T11:07:51;23.80;;;12.25;;
18443;SDS011;9350;53.176;8.194;2022-10-31T11:10:18;22.38;;;11.63;;
18443;SDS011;9350;53.176;8.194;2022-10-31T11:12:46;22.08;;;10.75;;
18443;SDS011;9350;53.176;8.194;2022-10-31T11:15:30;13.80;;;8.80;;
18443;SDS011;9350;53.176;8.194;2022-10-31T11:17:59;18.27;;;10.27;;
18443;SDS011;9350;53.176;8.194;2022-10-31T11:20:28;15.27;;;9.75;;
18443;SDS011;9350;53.176;8.194;2022-10-31T11:23:03;16.75;;;9.32;;
18443;SDS011;9350;53.176;8.194;2022-10-31T11:25:47;18.90;;;9.88;;
18443;SDS011;9350;53.176;8.194;2022-10-31T11:28:15;14.52;;;8.50;;
18443;SDS011;9350;53.176;8.194;2022-10-31T11:30:42;15.60;;;9.07;;
18443;SDS011;9350;53.176;8.194;2022-10-31T11:33:16;15.68;;;9.68;;
18443;SDS011;9350;53.176;8.194;2022-10-31T11:35:46;18.65;;;8.93;;
18443;SDS011;9350;53.176;8.194;2022-10-31T11:38:17;18.42;;;9.40;;
18443;SDS011;9350;53.176;8.194;2022-10-31T11:40:51;17.30;;;8.90;;
18443;SDS011;9350;53.176;8.194;2022-10-31T11:43:23;14.40;;;8.35;;
18443;SDS011;9350;53.176;8.194;2022-10-31T11:45:51;18.25;;;9.85;;
18443;SDS011;9350;53.176;8.194;2022-10-31T11:48:18;20.92;;;9.75;;
18443;SDS011;9350;53.176;8.194;2022-10-31T11:50:48;16.30;;;8.95;;
18443;SDS011;9350;53.176;8.194;2022-10-31T11:53:19;17.15;;;9.60;;
18443;SDS011;9350;53.176;8.194;2022-10-31T11:55:58;20.63;;;9.15;;
18443;SDS011;9350;53.176;8.194;2022-10-31T11:58:28;19.00;;;9.13;;
18443;SDS011;9350;53.176;8.194;2022-10-31T12:00:55;15.98;;;9.18;;
18443;SDS011;9350;53.176;8.194;2022-10-31T12:03:33;18.48;;;8.98;;
18443;SDS011;9350;53.176;8.194;2022-10-31T12:06:09;15.63;;;8.77;;
18443;SDS011;9350;53.176;8.194;2022-10-31T12:08:41;16.20;;;9.48;;
18443;SDS011;9350;53.176;8.194;2022-10-31T12:11:10;17.23;;;9.70;;
18443;SDS011;9350;53.176;8.194;2022-10-31T12:13:48;18.88;;;9.73;;
18443;SDS011;9350;53.176;8.194;2022-10-31T12:16:25;17.58;;;9.25;;
18443;SDS011;9350;53.176;8.194;2022-10-31T12:18:58;22.45;;;10.15;;
18443;SDS011;9350;53.176;8.194;2022-10-31T12:21:34;23.15;;;10.10;;
18443;SDS011;9350;53.176;8.194;2022-10-31T12:24:18;22.85;;;10.38;;
18443;SDS011;9350;53.176;8.194;2022-10-31T12:26:58;25.17;;;12.20;;
18443;SDS011;9350;53.176;8.194;2022-10-31T12:29:40;31.05;;;12.68;;
18443;SDS011;9350;53.176;8.194;2022-10-31T12:32:21;26.42;;;13.20;;
18443;SDS011;9350;53.176;8.194;2022-10-31T12:35:02;26.27;;;13.48;;
18443;SDS011;9350;53.176;8.194;2022-10-31T12:37:50;25.85;;;13.55;;
18443;SDS011;9350;53.176;8.194;2022-10-31T12:40:35;25.35;;;12.80;;
18443;SDS011;9350;53.176;8.194;2022-10-31T12:43:21;28.13;;;13.70;;
18443;SDS011;9350;53.176;8.194;2022-10-31T12:45:58;27.85;;;13.80;;
18443;SDS011;9350;53.176;8.194;2022-10-31T12:48:38;26.40;;;13.75;;
18443;SDS011;9350;53.176;8.194;2022-10-31T12:51:19;23.08;;;13.18;;
18443;SDS011;9350;53.176;8.194;2022-10-31T12:53:59;24.15;;;14.27;;
18443;SDS011;9350;53.176;8.194;2022-10-31T12:56:40;30.58;;;15.32;;
18443;SDS011;9350;53.176;8.194;2022-10-31T12:59:16;30.05;;;15.55;;
18443;SDS011;9350;53.176;8.194;2022-10-31T13:01:49;30.08;;;16.33;;
18443;SDS011;9350;53.176;8.194;2022-10-31T13:04:24;29.02;;;15.80;;
18443;SDS011;9350;53.176;8.194;2022-10-31T13:07:05;25.40;;;15.80;;
18443;SDS011;9350;53.176;8.194;2022-10-31T13:09:35;34.67;;;16.58;;
18443;SDS011;9350;53.176;8.194;2022-10-31T13:12:08;30.85;;;16.98;;
18443;SDS011;9350;53.176;8.194;2022-10-31T13:14:39;32.75;;;18.55;;
18443;SDS011;9350;53.176;8.194;2022-10-31T13:17:10;33.30;;;18.75;;
18443;SDS011;9350;53.176;8.194;2022-10-31T13:19:42;33.92;;;18.65;;
18443;SDS011;9350;53.176;8.194;2022-10-31T13:22:12;32.88;;;19.27;;
18443;SDS011;9350;53.176;8.194;2022-10-31T13:24:52;34.47;;;19.42;;
18443;SDS011;9350;53.176;8.194;2022-10-31T13:27:25;31.67;;;19.33;;
18443;SDS011;9350;53.176;8.194;2022-10-31T13:29:57;41.78;;;22.10;;
18443;SDS011;9350;53.176;8.194;2022-10-31T13:32:28;39.10;;;21.65;;
18443;SDS011;9350;53.176;8.194;2022-10-31T13:35:04;36.10;;;22.05;;
18443;SDS011;9350;53.176;8.194;2022-10-31T13:37:40;42.35;;;22.88;;
18443;SDS011;9350;53.176;8.194;2022-10-31T13:40:12;34.85;;;20.73;;
18443;SDS011;9350;53.176;8.194;2022-10-31T13:42:51;42.05;;;22.88;;
18443;SDS011;9350;53.176;8.194;2022-10-31T13:45:24;41.97;;;24.35;;
18443;SDS011;9350;53.176;8.194;2022-10-31T13:47:54;42.58;;;24.15;;
18443;SDS011;9350;53.176;8.194;2022-10-31T13:50:23;43.65;;;23.98;;
18443;SDS011;9350;53.176;8.194;2022-10-31T13:52:51;41.75;;;24.33;;
18443;SDS011;9350;53.176;8.194;2022-10-31T13:58:20;41.53;;;23.80;;
18443;SDS011;9350;53.176;8.194;2022-10-31T14:00:59;42.25;;;25.08;;
18443;SDS011;9350;53.176;8.194;2022-10-31T14:03:31;40.38;;;24.35;;
18443;SDS011;9350;53.176;8.194;2022-10-31T14:06:01;39.88;;;24.33;;
18443;SDS011;9350;53.176;8.194;2022-10-31T14:08:28;39.50;;;24.02;;
18443;SDS011;9350;53.176;8.194;2022-10-31T14:10:59;43.20;;;23.98;;
18443;SDS011;9350;53.176;8.194;2022-10-31T14:13:28;40.58;;;23.52;;
18443;SDS011;9350;53.176;8.194;2022-10-31T14:15:59;43.13;;;24.35;;
18443;SDS011;9350;53.176;8.194;2022-10-31T14:18:29;46.88;;;24.20;;
18443;SDS011;9350;53.176;8.194;2022-10-31T14:20:58;40.95;;;22.55;;
18443;SDS011;9350;53.176;8.194;2022-10-31T14:23:30;39.75;;;22.95;;
18443;SDS011;9350;53.176;8.194;2022-10-31T14:26:06;38.40;;;22.10;;
18443;SDS011;9350;53.176;8.194;2022-10-31T14:28:44;43.33;;;22.75;;
18443;SDS011;9350;53.176;8.194;2022-10-31T14:31:26;41.08;;;22.25;;
18443;SDS011;9350;53.176;8.194;2022-10-31T14:33:58;47.90;;;24.02;;
18443;SDS011;9350;53.176;8.194;2022-10-31T14:36:28;42.25;;;23.55;;
18443;SDS011;9350;53.176;8.194;2022-10-31T14:39:07;42.10;;;23.70;;
18443;SDS011;9350;53.176;8.194;2022-10-31T14:41:43;48.67;;;25.60;;
18443;SDS011;9350;53.176;8.194;2022-10-31T14:47:27;43.10;;;25.50;;
18443;SDS011;9350;53.176;8.194;2022-10-31T14:50:10;48.60;;;26.45;;
18443;SDS011;9350;53.176;8.194;2022-10-31T14:52:46;51.10;;;27.00;;
18443;SDS011;9350;53.176;8.194;2022-10-31T14:55:16;79.22;;;35.15;;
18443;SDS011;9350;53.176;8.194;2022-10-31T14:57:45;48.53;;;27.73;;
18443;SDS011;9350;53.176;8.194;2022-10-31T15:00:17;47.17;;;26.95;;
18443;SDS011;9350;53.176;8.194;2022-10-31T15:02:49;46.15;;;27.27;;
18443;SDS011;9350;53.176;8.194;2022-10-31T15:05:24;46.60;;;25.88;;